createdAt,value
2022-08-17T00:01:52.817Z,24.98
2022-08-17T00:04:25.660Z,24.98
2022-08-17T00:06:55.547Z,24.94
2022-08-17T00:09:25.398Z,24.97
2022-08-17T00:12:34.699Z,24.88
2022-08-17T00:14:46.163Z,24.95
2022-08-17T00:17:16.034Z,24.94
2022-08-17T00:19:47.394Z,24.83
2022-08-17T00:22:33.564Z,24.85
2022-08-17T00:25:09.560Z,24.85
2022-08-17T00:27:39.455Z,24.77
2022-08-17T00:30:13.040Z,24.78
2022-08-17T00:33:14.210Z,24.65
2022-08-17T00:35:37.356Z,24.70
2022-08-17T00:38:09.909Z,24.66
2022-08-17T00:40:44.913Z,24.64
2022-08-17T00:43:18.415Z,24.40
2022-08-17T00:45:48.706Z,24.64
2022-08-17T00:48:27.188Z,24.59
2022-08-17T00:51:06.682Z,24.62
2022-08-17T00:53:40.628Z,24.58
2022-08-17T00:56:16.206Z,24.50
2022-08-17T00:58:46.399Z,24.47
2022-08-17T01:01:21.607Z,24.48
2022-08-17T01:03:54.230Z,24.31
2022-08-17T01:06:31.213Z,24.31
2022-08-17T01:09:03.520Z,24.28
2022-08-17T01:11:36.266Z,24.31
2022-08-17T01:14:08.953Z,24.21
2022-08-17T01:16:39.630Z,24.23
2022-08-17T01:19:16.736Z,24.21
2022-08-17T01:21:56.198Z,24.15
2022-08-17T01:24:27.949Z,23.97
2022-08-17T01:26:58.141Z,24.15
2022-08-17T01:29:31.187Z,24.09
2022-08-17T01:32:04.811Z,24.11
2022-08-17T01:34:42.477Z,23.99
2022-08-17T01:37:13.889Z,23.95
2022-08-17T01:39:48.811Z,23.88
2022-08-17T01:42:31.820Z,23.76
2022-08-17T01:45:06.757Z,23.77
2022-08-17T01:47:37.390Z,23.80
2022-08-17T01:50:10.160Z,23.72
2022-08-17T01:52:40.742Z,23.59
2022-08-17T01:55:16.177Z,23.64
2022-08-17T01:57:46.594Z,23.65
2022-08-17T02:00:18.340Z,23.69
2022-08-17T02:02:48.701Z,23.73
2022-08-17T02:05:19.525Z,23.66
2022-08-17T02:08:00.258Z,23.65
2022-08-17T02:10:34.061Z,23.68
2022-08-17T02:13:05.951Z,23.70
2022-08-17T02:15:36.377Z,23.70
2022-08-17T02:18:07.347Z,23.72
2022-08-17T02:20:41.568Z,23.73
2022-08-17T02:23:14.495Z,23.65
2022-08-17T02:25:48.824Z,23.54
2022-08-17T02:28:19.163Z,23.52
2022-08-17T02:30:59.082Z,23.46
2022-08-17T02:33:37.292Z,23.42
2022-08-17T02:36:14.608Z,23.44
2022-08-17T02:38:45.734Z,23.51
2022-08-17T02:41:17.053Z,23.43
2022-08-17T02:43:46.984Z,23.44
2022-08-17T02:46:16.920Z,23.39
2022-08-17T02:48:47.083Z,23.35
2022-08-17T02:51:18.107Z,23.40
2022-08-17T02:53:48.028Z,23.29
2022-08-17T02:56:19.306Z,23.33
2022-08-17T02:58:49.309Z,23.23
2022-08-17T03:01:19.305Z,23.17
2022-08-17T03:03:49.360Z,23.24
2022-08-17T03:06:19.356Z,23.25
2022-08-17T03:08:49.318Z,23.28
2022-08-17T03:11:20.536Z,23.23
2022-08-17T03:13:51.469Z,23.14
2022-08-17T03:16:21.700Z,23.08
2022-08-17T03:18:51.793Z,23.16
2022-08-17T03:21:21.911Z,23.05
2022-08-17T03:23:54.577Z,23.05
2022-08-17T03:26:26.006Z,23.10
2022-08-17T03:28:59.914Z,23.14
2022-08-17T03:31:29.922Z,23.21
2022-08-17T03:34:02.196Z,23.19
2022-08-17T03:36:32.131Z,23.04
2022-08-17T03:39:06.590Z,22.93
2022-08-17T03:41:39.175Z,23.14
2022-08-17T03:44:09.149Z,23.10
2022-08-17T03:46:56.123Z,23.11
2022-08-17T03:49:45.769Z,23.04
2022-08-17T03:52:33.457Z,23.17
2022-08-17T03:55:35.962Z,23.14
2022-08-17T03:58:07.456Z,23.22
2022-08-17T04:00:39.832Z,23.10
2022-08-17T04:03:09.985Z,23.00
2022-08-17T04:05:40.238Z,23.26
2022-08-17T04:08:11.020Z,23.30
2022-08-17T04:10:44.766Z,23.28
2022-08-17T04:13:24.841Z,23.30
2022-08-17T04:15:56.215Z,23.31
2022-08-17T04:18:26.680Z,23.37
2022-08-17T04:20:57.003Z,23.41
2022-08-17T04:23:33.032Z,23.43
2022-08-17T04:26:04.037Z,23.39
2022-08-17T04:28:35.434Z,23.45
2022-08-17T04:31:05.787Z,23.52
2022-08-17T04:33:37.812Z,23.57
2022-08-17T04:36:09.938Z,23.59
2022-08-17T04:38:41.938Z,23.52
2022-08-17T04:41:30.932Z,23.36
2022-08-17T04:44:04.008Z,23.54
2022-08-17T04:46:36.464Z,23.57
2022-08-17T04:49:08.820Z,23.57
2022-08-17T04:51:45.473Z,23.57
2022-08-17T04:54:24.917Z,23.65
2022-08-17T04:56:54.867Z,23.65
2022-08-17T04:59:26.141Z,23.66
2022-08-17T05:01:56.050Z,23.76
2022-08-17T05:04:33.923Z,23.86
2022-08-17T05:07:05.163Z,23.94
2022-08-17T05:09:35.850Z,23.95
2022-08-17T05:12:06.902Z,24.09
2022-08-17T05:14:39.956Z,24.12
2022-08-17T05:17:11.273Z,24.24
2022-08-17T05:19:41.721Z,24.28
2022-08-17T05:22:11.718Z,24.39
2022-08-17T05:24:43.722Z,24.45
2022-08-17T05:27:25.453Z,24.71
2022-08-17T05:30:01.091Z,24.91
2022-08-17T05:32:38.805Z,25.02
2022-08-17T05:35:17.889Z,24.96
2022-08-17T05:37:47.855Z,25.02
2022-08-17T05:40:19.013Z,25.00
2022-08-17T05:42:49.623Z,25.01
2022-08-17T05:45:39.886Z,24.93
2022-08-17T05:48:13.317Z,25.03
2022-08-17T05:50:50.700Z,25.03
2022-08-17T05:53:28.473Z,25.05
2022-08-17T05:56:11.626Z,25.08
2022-08-17T05:59:09.803Z,25.06
2022-08-17T06:01:53.358Z,25.02
2022-08-17T06:04:32.262Z,25.05
2022-08-17T06:07:13.211Z,25.05
2022-08-17T06:09:50.669Z,25.09
2022-08-17T06:12:35.656Z,25.10
2022-08-17T06:15:26.233Z,25.02
2022-08-17T06:18:01.140Z,25.15
2022-08-17T06:20:47.464Z,25.25
2022-08-17T06:23:27.615Z,25.28
2022-08-17T06:26:03.789Z,25.22
2022-08-17T06:28:39.507Z,25.36
2022-08-17T06:31:16.803Z,25.36
2022-08-17T06:33:48.209Z,25.46
2022-08-17T06:36:33.689Z,25.43
2022-08-17T06:39:19.441Z,25.44
2022-08-17T06:42:02.324Z,25.47
2022-08-17T06:44:47.609Z,25.48
2022-08-17T06:47:27.940Z,25.45
2022-08-17T06:50:14.456Z,25.45
2022-08-17T06:52:52.511Z,25.44
2022-08-17T06:55:27.519Z,25.48
2022-08-17T06:58:02.138Z,25.53
2022-08-17T07:00:42.949Z,25.59
2022-08-17T07:03:29.492Z,25.92
2022-08-17T07:06:08.113Z,25.96
2022-08-17T07:08:48.737Z,26.08
2022-08-17T07:11:21.824Z,26.27
2022-08-17T07:14:02.492Z,26.42
2022-08-17T07:16:39.167Z,26.69
2022-08-17T07:19:11.201Z,26.91
2022-08-17T07:21:55.109Z,26.99
2022-08-17T07:24:37.330Z,27.05
2022-08-17T07:27:11.732Z,27.12
2022-08-17T07:29:46.434Z,27.18
2022-08-17T07:32:20.116Z,27.24
2022-08-17T07:35:13.053Z,27.39
2022-08-17T07:37:53.452Z,27.49
2022-08-17T07:40:28.167Z,27.63
2022-08-17T07:43:23.981Z,27.77
2022-08-17T07:46:44.966Z,27.93
2022-08-17T07:49:21.201Z,27.99
2022-08-17T07:52:48.025Z,28.07
2022-08-17T07:54:56.123Z,28.09
2022-08-17T07:57:37.056Z,28.29
2022-08-17T08:00:32.466Z,28.35
2022-08-17T08:03:16.673Z,28.48
2022-08-17T08:05:53.571Z,28.56
2022-08-17T08:08:31.093Z,28.65
2022-08-17T08:11:07.345Z,28.74
2022-08-17T08:13:45.105Z,28.80
2022-08-17T08:16:22.688Z,28.87
2022-08-17T08:18:57.555Z,28.91
2022-08-17T08:21:42.284Z,28.99
2022-08-17T08:24:36.541Z,28.98
2022-08-17T08:27:15.991Z,29.11
2022-08-17T08:29:53.991Z,29.05
2022-08-17T08:32:38.281Z,29.22
2022-08-17T08:35:13.101Z,29.24
2022-08-17T08:37:53.431Z,29.41
2022-08-17T08:40:39.992Z,29.48
2022-08-17T08:43:23.267Z,29.19
2022-08-17T08:46:02.726Z,29.37
2022-08-17T08:48:58.694Z,29.50
2022-08-17T08:51:43.291Z,29.61
2022-08-17T08:54:28.567Z,29.43
2022-08-17T08:57:30.901Z,29.54
2022-08-17T09:00:14.741Z,29.65
2022-08-17T09:03:13.137Z,29.77
2022-08-17T09:06:06.886Z,29.80
2022-08-17T09:09:03.423Z,29.84
2022-08-17T09:12:02.639Z,29.67
2022-08-17T09:14:47.142Z,29.78
2022-08-17T09:17:23.098Z,29.93
2022-08-17T09:20:01.133Z,29.92
2022-08-17T09:22:37.469Z,30.20
2022-08-17T09:25:12.051Z,30.17
2022-08-17T09:27:52.117Z,30.13
2022-08-17T09:30:23.728Z,30.14
2022-08-17T09:32:59.886Z,30.09
2022-08-17T09:35:39.509Z,30.04
2022-08-17T09:38:22.443Z,30.23
2022-08-17T09:40:58.574Z,30.32
2022-08-17T09:43:39.978Z,30.28
2022-08-17T09:46:15.675Z,30.21
2022-08-17T09:48:51.740Z,30.00
2022-08-17T09:51:30.379Z,30.11
2022-08-17T09:54:34.932Z,30.37
2022-08-17T09:57:28.032Z,30.46
2022-08-17T10:00:07.593Z,30.50
2022-08-17T10:03:09.633Z,30.47
2022-08-17T10:05:47.707Z,30.56
2022-08-17T10:08:28.691Z,30.45
2022-08-17T10:11:12.780Z,30.34
2022-08-17T10:13:53.367Z,30.52
2022-08-17T10:16:32.028Z,30.48
2022-08-17T10:19:11.552Z,30.41
2022-08-17T10:22:32.509Z,30.56
2022-08-17T10:25:22.332Z,30.63
2022-08-17T10:27:58.814Z,30.89
2022-08-17T10:30:34.585Z,30.85
2022-08-17T10:33:07.967Z,30.94
2022-08-17T10:35:43.485Z,30.90
2022-08-17T10:38:31.154Z,30.93
2022-08-17T10:41:13.461Z,30.87
2022-08-17T10:43:55.849Z,30.84
2022-08-17T10:47:02.698Z,30.96
2022-08-17T10:49:35.121Z,31.15
2022-08-17T10:52:24.904Z,31.02
2022-08-17T10:55:15.085Z,31.28
2022-08-17T10:57:46.387Z,30.94
2022-08-17T11:00:57.978Z,30.97
2022-08-17T11:03:29.701Z,30.72
2022-08-17T11:06:12.764Z,30.79
2022-08-17T11:09:21.089Z,31.17
2022-08-17T11:12:11.477Z,31.31
2022-08-17T11:14:57.988Z,31.00
2022-08-17T11:18:01.499Z,31.39
2022-08-17T11:21:10.557Z,31.33
2022-08-17T11:24:07.300Z,31.31
2022-08-17T11:26:42.240Z,31.24
2022-08-17T11:29:20.786Z,31.20
2022-08-17T11:32:06.089Z,31.28
2022-08-17T11:34:36.741Z,31.62
2022-08-17T11:37:34.097Z,31.54
2022-08-17T11:40:29.485Z,31.59
2022-08-17T11:43:29.933Z,31.55
2022-08-17T11:46:18.881Z,31.37
2022-08-17T11:49:17.900Z,31.29
2022-08-17T11:52:35.959Z,31.61
2022-08-17T11:55:33.953Z,31.59
2022-08-17T11:58:01.626Z,31.63
2022-08-17T12:00:52.509Z,31.67
2022-08-17T12:03:53.721Z,31.56
2022-08-17T12:06:49.421Z,31.44
2022-08-17T12:09:20.870Z,31.41
2022-08-17T12:12:12.523Z,31.58
2022-08-17T12:17:42.827Z,31.49
2022-08-17T12:20:16.366Z,31.45
2022-08-17T12:22:53.446Z,31.41
2022-08-17T12:25:33.121Z,31.70
2022-08-17T12:28:07.731Z,31.80
2022-08-17T12:30:38.959Z,31.81
2022-08-17T12:33:25.789Z,31.90
2022-08-17T12:36:03.925Z,31.72
2022-08-17T12:38:36.272Z,31.80
2022-08-17T12:41:23.051Z,31.75
2022-08-17T12:44:01.695Z,31.85
2022-08-17T12:46:35.843Z,31.66
2022-08-17T12:49:13.873Z,31.58
2022-08-17T12:51:45.710Z,31.48
2022-08-17T12:54:26.757Z,31.12
2022-08-17T12:56:57.135Z,31.41
2022-08-17T12:59:30.078Z,31.54
2022-08-17T13:02:01.924Z,31.45
2022-08-17T13:04:33.004Z,31.42
2022-08-17T13:07:02.887Z,31.80
2022-08-17T13:09:35.476Z,31.85
2022-08-17T13:12:11.027Z,31.71
2022-08-17T13:14:47.715Z,30.95
2022-08-17T13:17:27.591Z,31.58
2022-08-17T13:19:58.301Z,31.77
2022-08-17T13:22:30.605Z,31.59
2022-08-17T13:25:07.126Z,31.63
2022-08-17T13:27:38.328Z,31.67
2022-08-17T13:30:14.962Z,31.52
2022-08-17T13:32:47.294Z,31.64
2022-08-17T13:35:45.892Z,32.03
2022-08-17T13:38:40.575Z,32.07
2022-08-17T13:41:30.937Z,31.85
2022-08-17T13:44:00.847Z,31.76
2022-08-17T13:46:34.208Z,31.77
2022-08-17T13:49:07.286Z,31.66
2022-08-17T13:51:44.522Z,31.76
2022-08-17T13:54:25.765Z,31.82
2022-08-17T13:57:01.964Z,31.86
2022-08-17T13:59:55.214Z,32.09
2022-08-17T14:02:28.477Z,31.94
2022-08-17T14:05:00.604Z,31.72
2022-08-17T14:07:34.807Z,31.73
2022-08-17T14:10:10.746Z,31.80
2022-08-17T14:12:44.720Z,31.84
2022-08-17T14:15:20.571Z,31.69
2022-08-17T14:17:53.285Z,31.56
2022-08-17T14:20:24.638Z,31.42
2022-08-17T14:22:55.755Z,31.55
2022-08-17T14:25:28.740Z,31.56
2022-08-17T14:27:59.148Z,31.83
2022-08-17T14:30:30.016Z,31.81
2022-08-17T14:33:02.264Z,31.51
2022-08-17T14:35:32.249Z,31.67
2022-08-17T14:38:03.178Z,31.67
2022-08-17T14:40:34.762Z,31.51
2022-08-17T14:43:05.107Z,31.49
2022-08-17T14:45:35.001Z,31.60
2022-08-17T14:48:07.978Z,31.59
2022-08-17T14:50:40.989Z,31.72
2022-08-17T14:53:13.253Z,31.32
2022-08-17T14:55:45.812Z,31.24
2022-08-17T14:58:19.965Z,31.20
2022-08-17T15:00:51.000Z,31.43
2022-08-17T15:03:22.824Z,31.30
2022-08-17T15:05:52.797Z,31.17
2022-08-17T15:08:22.552Z,31.06
2022-08-17T15:10:54.391Z,31.30
2022-08-17T15:13:27.132Z,31.07
2022-08-17T15:15:59.305Z,31.11
2022-08-17T15:18:31.457Z,31.18
2022-08-17T15:21:03.897Z,31.27
2022-08-17T15:23:34.294Z,31.29
2022-08-17T15:26:04.309Z,31.37
2022-08-17T15:28:34.581Z,31.25
2022-08-17T15:31:06.662Z,31.11
2022-08-17T15:33:38.094Z,31.11
2022-08-17T15:36:09.361Z,31.03
2022-08-17T15:38:40.404Z,30.88
2022-08-17T15:41:15.219Z,30.82
2022-08-17T15:43:46.869Z,30.54
2022-08-17T15:46:18.909Z,30.55
2022-08-17T15:48:52.001Z,30.78
2022-08-17T15:51:24.969Z,31.00
2022-08-17T15:53:57.425Z,30.87
2022-08-17T15:56:29.281Z,30.81
2022-08-17T15:59:01.268Z,30.76
2022-08-17T16:02:16.285Z,30.87
2022-08-17T16:04:29.920Z,30.93
2022-08-17T16:07:01.181Z,31.02
2022-08-17T16:09:31.140Z,30.92
2022-08-17T16:12:10.694Z,30.83
2022-08-17T16:14:41.208Z,30.54
2022-08-17T16:17:38.747Z,30.38
2022-08-17T16:20:02.687Z,30.55
2022-08-17T16:22:34.761Z,30.55
2022-08-17T16:25:09.094Z,30.48
2022-08-17T16:27:39.375Z,30.50
2022-08-17T16:30:16.431Z,30.34
2022-08-17T16:32:48.447Z,30.52
2022-08-17T16:35:21.326Z,30.20
2022-08-17T16:37:53.125Z,30.09
2022-08-17T16:40:24.213Z,29.89
2022-08-17T16:42:55.250Z,29.86
2022-08-17T16:45:28.487Z,29.85
2022-08-17T16:48:01.587Z,29.72
2022-08-17T16:50:34.028Z,29.52
2022-08-17T16:53:06.634Z,29.63
2022-08-17T16:55:36.822Z,29.67
2022-08-17T16:58:08.890Z,29.59
2022-08-17T17:00:39.470Z,29.55
2022-08-17T17:03:19.223Z,29.41
2022-08-17T17:06:03.871Z,29.43
2022-08-17T17:08:44.556Z,29.39
2022-08-17T17:11:26.127Z,29.34
2022-08-17T17:13:59.696Z,29.26
2022-08-17T17:16:39.077Z,29.05
2022-08-17T17:19:12.845Z,29.24
2022-08-17T17:21:46.280Z,29.31
2022-08-17T17:24:22.239Z,29.26
2022-08-17T17:27:10.417Z,29.21
2022-08-17T17:29:52.767Z,29.15
2022-08-17T17:32:38.132Z,29.15
2022-08-17T17:35:17.125Z,29.10
2022-08-17T17:37:48.737Z,29.07
2022-08-17T17:40:23.169Z,29.00
2022-08-17T17:42:55.646Z,28.97
2022-08-17T17:45:31.399Z,28.89
2022-08-17T17:48:02.337Z,28.85
2022-08-17T17:50:39.151Z,28.75
2022-08-17T17:53:35.251Z,28.78
2022-08-17T17:56:44.449Z,28.72
2022-08-17T17:59:21.693Z,28.65
2022-08-17T18:02:03.046Z,28.62
2022-08-17T18:04:44.771Z,28.48
2022-08-17T18:07:24.403Z,28.52
2022-08-17T18:10:19.649Z,28.49
2022-08-17T18:13:09.941Z,28.45
2022-08-17T18:15:51.405Z,28.41
2022-08-17T18:18:38.020Z,28.32
2022-08-17T18:21:19.440Z,28.24
2022-08-17T18:23:55.707Z,28.15
2022-08-17T18:26:44.657Z,28.18
2022-08-17T18:29:24.501Z,28.09
2022-08-17T18:32:29.428Z,28.03
2022-08-17T18:35:04.711Z,28.12
2022-08-17T18:37:42.681Z,28.11
2022-08-17T18:40:29.474Z,28.12
2022-08-17T18:43:08.364Z,28.16
2022-08-17T18:45:42.307Z,28.18
2022-08-17T18:48:30.689Z,28.16
2022-08-17T18:51:26.480Z,28.06
2022-08-17T18:54:19.361Z,28.06
2022-08-17T18:56:54.726Z,28.03
2022-08-17T18:59:35.724Z,28.05
2022-08-17T19:02:43.321Z,27.97
2022-08-17T19:05:26.272Z,27.82
2022-08-17T19:08:16.689Z,27.89
2022-08-17T19:10:48.633Z,27.82
2022-08-17T19:13:24.437Z,27.85
2022-08-17T19:16:11.454Z,27.77
2022-08-17T19:18:49.439Z,27.86
2022-08-17T19:21:24.133Z,27.66
2022-08-17T19:24:01.650Z,27.75
2022-08-17T19:26:53.827Z,27.69
2022-08-17T19:29:31.893Z,27.69
2022-08-17T19:32:08.749Z,27.56
2022-08-17T19:34:44.599Z,27.58
2022-08-17T19:37:28.639Z,27.58
2022-08-17T19:40:03.338Z,27.56
2022-08-17T19:42:42.553Z,27.47
2022-08-17T19:45:23.951Z,27.48
2022-08-17T19:48:05.510Z,27.37
2022-08-17T19:50:44.925Z,27.30
2022-08-17T19:53:36.850Z,27.36
2022-08-17T19:56:26.235Z,27.38
2022-08-17T19:59:02.234Z,27.20
2022-08-17T20:01:39.224Z,27.33
2022-08-17T20:04:17.253Z,27.36
2022-08-17T20:06:50.332Z,27.28
2022-08-17T20:09:24.704Z,27.14
2022-08-17T20:12:07.170Z,27.21
2022-08-17T20:14:55.661Z,27.08
2022-08-17T20:17:31.926Z,27.17
2022-08-17T20:20:19.825Z,27.18
2022-08-17T20:22:59.860Z,27.19
2022-08-17T20:25:39.527Z,27.17
2022-08-17T20:28:22.924Z,27.19
2022-08-17T20:30:53.815Z,27.20
2022-08-17T20:33:27.252Z,27.11
2022-08-17T20:36:22.752Z,27.14
2022-08-17T20:38:55.704Z,27.15
2022-08-17T20:41:27.870Z,27.08
2022-08-17T20:44:06.533Z,27.10
2022-08-17T20:47:04.704Z,27.05
2022-08-17T20:49:48.559Z,27.10
2022-08-17T20:52:45.392Z,27.05
2022-08-17T20:55:53.306Z,26.96
2022-08-17T20:58:47.214Z,26.92
2022-08-17T21:01:24.458Z,26.86
2022-08-17T21:03:56.124Z,26.87
2022-08-17T21:06:26.610Z,26.82
2022-08-17T21:09:19.833Z,26.82
2022-08-17T21:12:04.303Z,26.76
2022-08-17T21:14:45.680Z,26.81
2022-08-17T21:17:41.910Z,26.83
2022-08-17T21:20:32.328Z,26.82
2022-08-17T21:23:25.749Z,26.80
2022-08-17T21:26:17.382Z,26.77
2022-08-17T21:29:03.602Z,26.70
2022-08-17T21:32:15.873Z,26.66
2022-08-17T21:35:24.189Z,26.65
2022-08-17T21:38:00.014Z,26.71
2022-08-17T21:40:33.218Z,26.76
2022-08-17T21:43:18.145Z,26.79
2022-08-17T21:45:57.797Z,26.84
2022-08-17T21:48:29.348Z,26.86
2022-08-17T21:51:04.733Z,26.86
2022-08-17T21:53:40.207Z,26.89
2022-08-17T21:56:13.185Z,26.76
2022-08-17T21:58:48.556Z,26.95
2022-08-17T22:01:25.337Z,26.98
2022-08-17T22:04:00.047Z,26.87
2022-08-17T22:06:34.217Z,26.96
2022-08-17T22:09:16.009Z,26.97
2022-08-17T22:11:52.673Z,26.92
2022-08-17T22:14:27.213Z,26.96
2022-08-17T22:17:20.672Z,26.87
2022-08-17T22:19:53.291Z,26.87
2022-08-17T22:22:59.971Z,26.81
2022-08-17T22:25:31.132Z,26.72
2022-08-17T22:28:04.074Z,26.67
2022-08-17T22:30:38.368Z,26.64
2022-08-17T22:33:32.050Z,26.52
2022-08-17T22:36:29.107Z,26.49
2022-08-17T22:39:01.467Z,26.46
2022-08-17T22:41:40.503Z,26.41
2022-08-17T22:44:18.176Z,26.35
2022-08-17T22:47:04.535Z,26.27
2022-08-17T22:49:38.665Z,26.18
2022-08-17T22:52:33.098Z,26.28
2022-08-17T22:55:25.150Z,26.11
2022-08-17T22:58:14.657Z,26.18
2022-08-17T23:00:47.425Z,26.19
2022-08-17T23:03:20.752Z,26.17
2022-08-17T23:06:03.439Z,26.17
2022-08-17T23:08:35.729Z,26.01
2022-08-17T23:11:07.670Z,26.10
2022-08-17T23:13:38.433Z,26.06
2022-08-17T23:16:08.930Z,26.08
2022-08-17T23:18:40.225Z,26.08
2022-08-17T23:21:10.193Z,26.06
2022-08-17T23:23:46.320Z,26.07
2022-08-17T23:26:16.857Z,26.06
2022-08-17T23:28:47.101Z,26.05
2022-08-17T23:31:19.641Z,26.01
2022-08-17T23:33:59.252Z,25.96
2022-08-17T23:36:29.493Z,25.95
2022-08-17T23:38:59.852Z,25.90
2022-08-17T23:41:34.135Z,25.83
2022-08-17T23:44:07.132Z,25.86
2022-08-17T23:46:37.244Z,25.85
2022-08-17T23:49:08.832Z,25.86
2022-08-17T23:51:42.547Z,25.77
2022-08-17T23:54:16.995Z,25.78
2022-08-17T23:56:47.102Z,25.79
2022-08-17T23:59:18.848Z,25.71
